Aral'sk, Kazakhstan
Current Conditions -  °F | °C
As of 7:00 PM on Saturday 25 Oct 2014 (Local Time) from UAOO Reporting Station
Clear Clear  
Wind Chill: 32°   Ceiling: Unl
Heat Index: 37°   Visibility: 6mi
Dew Point: 27°   Wind: 7mph
Humidity: 65%   Direction: 30°NNE
Pressure: 30.06"   Gusts: NA
Location:  46.78°N, 61.65°E
Report Text: UAOO 251400Z 03003MPS CAVOK 03/M03 Q1018 R24/CLRD70 NOSIG RMKQFE752/1003
Loading
Personal Weather Stations






























Interactive Weather Map
Tropical Storm Tracking
New forecast layout! Learn more

10-Day Weather Forecast

Advertisements
Track Severe Weather on mobile